Time;durP1;ratioP1;P1;durP2;ratioP2;P2;SDS_P1;SDS_P2;PMS_P1;PMS_P2;Temp;Humidity;BMP_temperature;BMP_pressure;BME280_temperature;BME280_humidity;BME280_pressure;Samples;Min_cycle;Max_cycle;Signal;HPM_P1;HPM_P2
2023/12/23 00:00:04;;;;;;;3.70;1.77;;;;;;;8.14;81.27;97391.69;5070349;28;20657;-73
2023/12/23 00:02:33;;;;;;;3.55;1.40;;;;;;;8.18;80.80;97398.34;5105757;28;20216;-73
2023/12/23 00:04:59;;;;;;;3.50;1.70;;;;;;;8.19;80.94;97411.63;5073326;28;20245;-73
2023/12/23 00:07:26;;;;;;;4.13;1.52;;;;;;;8.18;80.80;97412.66;5089211;28;20200;-73
2023/12/23 00:09:53;;;;;;;2.20;1.20;;;;;;;8.17;81.25;97408.28;5046222;28;20233;-73
2023/12/23 00:12:20;;;;;;;5.35;1.58;;;;;;;8.05;82.20;97407.22;5071121;28;20203;-74
2023/12/23 00:14:46;;;;;;;2.90;1.70;;;;;;;7.98;83.13;97420.66;5072436;28;20701;-73
2023/12/23 00:17:13;;;;;;;4.95;1.52;;;;;;;7.92;84.32;97421.47;5087661;28;20555;-74
2023/12/23 00:19:41;;;;;;;4.75;1.67;;;;;;;7.82;85.32;97414.78;5072275;28;20234;-73
2023/12/23 00:22:07;;;;;;;5.90;1.88;;;;;;;7.75;84.62;97418.28;5054742;28;20199;-73
2023/12/23 00:24:36;;;;;;;3.28;2.17;;;;;;;7.80;83.91;97444.59;5072954;28;20648;-73
2023/12/23 00:27:03;;;;;;;4.72;2.15;;;;;;;7.82;84.28;97434.47;5054997;28;20281;-74
2023/12/23 00:29:30;;;;;;;4.90;1.67;;;;;;;7.85;83.96;97444.84;5073271;28;20628;-74
2023/12/23 00:31:56;;;;;;;4.28;1.65;;;;;;;7.85;84.14;97452.94;5104672;28;20207;-73
2023/12/23 00:34:23;;;;;;;4.22;1.70;;;;;;;7.83;84.93;97438.00;5073338;28;20204;-76
2023/12/23 00:36:51;;;;;;;3.45;1.35;;;;;;;7.69;84.92;97454.09;5073148;28;20227;-74
2023/12/23 00:39:20;;;;;;;5.40;1.73;;;;;;;7.64;85.95;97445.78;5088819;28;20204;-74
2023/12/23 00:41:47;;;;;;;5.18;1.98;;;;;;;7.63;86.57;97460.28;5104626;28;20208;-74
2023/12/23 00:44:14;;;;;;;4.47;1.65;;;;;;;7.56;86.89;97463.94;5089068;28;20184;-74
2023/12/23 00:46:40;;;;;;;3.90;1.63;;;;;;;7.46;87.71;97466.19;5055920;28;20196;-74
2023/12/23 00:49:07;;;;;;;3.42;1.77;;;;;;;7.40;88.23;97470.47;5090707;28;20202;-74
2023/12/23 00:51:33;;;;;;;2.97;1.48;;;;;;;7.39;87.58;97469.66;5104848;28;20253;-74
2023/12/23 00:54:02;;;;;;;3.70;1.60;;;;;;;7.49;88.04;97465.75;5072727;28;20650;-75
2023/12/23 00:56:28;;;;;;;5.70;1.70;;;;;;;7.46;87.82;97466.19;5055112;28;20206;-75
2023/12/23 00:58:55;;;;;;;3.85;1.70;;;;;;;7.47;87.78;97473.22;5079762;28;20204;-74
2023/12/23 01:01:21;;;;;;;6.25;2.15;;;;;;;7.44;88.24;97476.31;5081110;28;20192;-74
2023/12/23 01:03:48;;;;;;;4.88;1.50;;;;;;;7.43;88.57;97482.72;5065476;28;20210;-74
2023/12/23 01:06:14;;;;;;;3.03;1.60;;;;;;;7.46;88.32;97485.03;5074438;28;20279;-74
2023/12/23 01:08:42;;;;;;;6.07;1.73;;;;;;;7.39;87.66;97477.72;5072655;28;20204;-74
2023/12/23 01:11:11;;;;;;;2.05;1.55;;;;;;;7.43;86.65;97474.66;5070248;28;20222;-74
2023/12/23 01:13:39;;;;;;;3.47;1.50;;;;;;;7.51;86.08;97487.94;5070061;28;20199;-74
2023/12/23 01:16:06;;;;;;;3.72;1.63;;;;;;;7.55;85.32;97481.13;5072348;28;20215;-74
2023/12/23 01:18:35;;;;;;;3.00;1.60;;;;;;;7.62;85.18;97490.91;5072137;28;20235;-73
2023/12/23 01:21:01;;;;;;;2.50;1.45;;;;;;;7.61;84.49;97509.97;5103763;28;20196;-74
2023/12/23 01:23:28;;;;;;;2.38;1.40;;;;;;;7.63;84.36;97497.97;5055514;28;20720;-74
2023/12/23 01:25:55;;;;;;;2.08;1.08;;;;;;;7.69;83.78;97501.75;5090051;28;20557;-74
2023/12/23 01:28:23;;;;;;;5.32;1.90;;;;;;;7.68;83.43;97521.63;5071673;28;20207;-74
2023/12/23 01:30:49;;;;;;;3.15;1.58;;;;;;;7.69;83.58;97517.91;5088062;28;20230;-74
2023/12/23 01:33:16;;;;;;;2.47;0.90;;;;;;;7.70;83.57;97524.97;5080565;28;20206;-74
2023/12/23 01:35:43;;;;;;;3.63;1.45;;;;;;;7.72;82.67;97518.34;5070972;28;20641;-74
2023/12/23 01:38:09;;;;;;;2.97;1.25;;;;;;;7.73;83.19;97522.72;5071856;28;20290;-74
2023/12/23 01:40:36;;;;;;;3.80;1.40;;;;;;;7.79;82.93;97526.47;5103764;28;20199;-74
2023/12/23 01:43:01;;;;;;;4.63;1.70;;;;;;;7.68;83.67;97544.00;5070720;28;20668;-74
2023/12/23 01:45:29;;;;;;;5.87;1.70;;;;;;;7.63;84.37;97532.97;5086756;28;20218;-74
2023/12/23 01:47:57;;;;;;;4.10;1.58;;;;;;;7.63;84.62;97541.06;5072375;28;20649;-74
2023/12/23 01:50:25;;;;;;;5.22;1.98;;;;;;;7.64;84.85;97545.41;5089106;28;20220;-74
2023/12/23 01:52:53;;;;;;;5.57;1.80;;;;;;;7.67;84.63;97568.44;5069117;28;20211;-74
2023/12/23 01:55:20;;;;;;;5.15;1.98;;;;;;;7.67;84.49;97563.88;5070882;28;20199;-74
2023/12/23 01:57:46;;;;;;;5.88;1.90;;;;;;;7.69;84.32;97566.38;5069360;28;20605;-74
2023/12/23 02:00:13;;;;;;;4.53;2.30;;;;;;;7.75;83.30;97560.22;5088788;28;20196;-74
2023/12/23 02:02:43;;;;;;;4.88;1.90;;;;;;;7.78;82.43;97557.13;5071750;28;20219;-74
2023/12/23 02:05:09;;;;;;;3.80;1.83;;;;;;;7.84;82.20;97548.25;5071039;28;20199;-74
2023/12/23 02:07:36;;;;;;;4.03;2.00;;;;;;;7.86;82.19;97551.56;5053701;28;20219;-74
2023/12/23 02:10:02;;;;;;;6.53;1.80;;;;;;;7.78;82.29;97543.66;5071755;28;20224;-73
2023/12/23 02:12:35;;;;;;;5.03;1.80;;;;;;;7.78;82.46;97554.44;5105441;28;20222;-73
2023/12/23 02:15:06;;;;;;;6.68;1.83;;;;;;;7.87;82.27;97547.00;5088920;28;20214;-74
2023/12/23 02:17:32;;;;;;;4.15;2.00;;;;;;;7.81;82.36;97545.09;5068505;28;20196;-74
2023/12/23 02:20:00;;;;;;;2.92;1.92;;;;;;;7.78;82.36;97546.34;5071286;28;20283;-73
2023/12/23 02:22:28;;;;;;;3.72;1.55;;;;;;;7.83;82.38;97541.19;5054032;28;20654;-74
2023/12/23 02:24:55;;;;;;;7.03;2.70;;;;;;;7.83;82.55;97551.97;5071582;28;20206;-73
2023/12/23 02:27:25;;;;;;;5.97;1.85;;;;;;;7.81;82.57;97548.63;5070282;28;20219;-73
2023/12/23 02:29:52;;;;;;;3.88;1.55;;;;;;;7.75;82.94;97544.06;5071819;28;20206;-73
2023/12/23 02:32:20;;;;;;;4.45;1.58;;;;;;;7.68;84.23;97553.94;5088262;28;20210;-73
2023/12/23 02:34:47;;;;;;;2.47;1.40;;;;;;;7.63;84.98;97545.63;5073481;28;20207;-74
2023/12/23 02:37:13;;;;;;;4.93;1.65;;;;;;;7.59;85.18;97555.09;5071737;28;20694;-73
2023/12/23 02:39:43;;;;;;;2.30;1.80;;;;;;;7.54;85.28;97557.53;5092942;28;20206;-73
2023/12/23 02:42:10;;;;;;;4.28;2.10;;;;;;;7.56;85.09;97556.31;5073276;28;20204;-74
2023/12/23 02:44:36;;;;;;;4.72;1.98;;;;;;;7.59;84.51;97560.50;5074459;28;20197;-73
2023/12/23 02:47:03;;;;;;;6.35;2.00;;;;;;;7.59;84.18;97557.81;5092958;28;20199;-74
2023/12/23 02:49:30;;;;;;;3.80;2.03;;;;;;;7.61;83.69;97544.97;5074707;28;20633;-74
2023/12/23 02:51:56;;;;;;;3.63;2.10;;;;;;;7.62;83.74;97589.72;5073723;28;20671;-73
2023/12/23 02:54:23;;;;;;;6.32;2.70;;;;;;;7.71;82.37;97558.94;5071197;28;20207;-73
2023/12/23 02:56:52;;;;;;;3.35;1.70;;;;;;;7.71;82.43;97577.78;5074586;28;20196;-73
2023/12/23 02:59:19;;;;;;;4.65;1.80;;;;;;;7.78;81.78;97607.47;5073473;28;20203;-73
2023/12/23 03:01:45;;;;;;;3.97;1.70;;;;;;;7.80;81.67;97579.28;5074423;28;20202;-74
2023/12/23 03:04:12;;;;;;;3.83;1.85;;;;;;;7.79;82.07;97577.66;5092695;28;20687;-73
2023/12/23 03:06:38;;;;;;;4.85;1.73;;;;;;;7.75;81.97;97579.06;5073413;28;20214;-74
2023/12/23 03:09:05;;;;;;;3.33;1.52;;;;;;;7.72;81.76;97553.34;5072357;28;20933;-73
2023/12/23 03:11:31;;;;;;;3.20;1.83;;;;;;;7.71;81.12;97578.63;5073352;28;20215;-74
2023/12/23 03:14:00;;;;;;;4.00;1.55;;;;;;;7.80;80.83;97584.69;5074936;28;20287;-72
2023/12/23 03:16:33;;;;;;;4.03;2.10;;;;;;;7.74;80.92;97575.53;5054932;28;20203;-72
2023/12/23 03:19:00;;;;;;;4.20;1.65;;;;;;;7.77;80.83;97585.09;5072508;28;20208;-72
2023/12/23 03:21:26;;;;;;;3.90;1.70;;;;;;;7.70;80.86;97573.44;5074251;28;20565;-72
2023/12/23 03:23:53;;;;;;;4.30;1.80;;;;;;;7.77;80.58;97585.09;5057634;28;20211;-72
2023/12/23 03:26:20;;;;;;;3.55;1.77;;;;;;;7.73;80.82;97575.75;5086813;28;20750;-73
2023/12/23 03:28:46;;;;;;;2.95;1.75;;;;;;;7.72;81.14;97579.47;5073002;28;20206;-73
2023/12/23 03:31:16;;;;;;;3.40;1.75;;;;;;;7.80;80.48;97565.81;5073825;28;20299;-72
2023/12/23 03:33:42;;;;;;;4.45;1.90;;;;;;;7.70;80.60;97560.81;5091481;28;20207;-72
2023/12/23 03:36:09;;;;;;;3.28;1.80;;;;;;;7.69;80.54;97579.84;5073940;28;20206;-73
2023/12/23 03:38:36;;;;;;;2.80;1.50;;;;;;;7.73;80.38;97573.88;5073166;28;20200;-72
2023/12/23 03:41:02;;;;;;;3.15;1.73;;;;;;;7.78;80.02;97572.47;5090581;28;20188;-72
2023/12/23 03:43:29;;;;;;;6.55;2.10;;;;;;;7.86;80.20;97585.75;5071029;28;20203;-73
2023/12/23 03:45:56;;;;;;;4.03;1.67;;;;;;;7.81;80.19;97575.56;5088472;28;20564;-72
2023/12/23 03:48:25;;;;;;;3.33;1.42;;;;;;;7.75;80.25;97573.69;5091782;28;20191;-72
2023/12/23 03:50:52;;;;;;;5.30;1.88;;;;;;;7.71;79.77;97591.25;5073217;28;20220;-72
2023/12/23 03:53:18;;;;;;;2.83;1.80;;;;;;;7.76;79.28;97594.22;5071249;28;20237;-72
2023/12/23 03:55:45;;;;;;;4.40;1.80;;;;;;;7.80;79.28;97584.69;5070306;28;20294;-72
2023/12/23 03:58:11;;;;;;;2.20;1.67;;;;;;;7.79;79.70;97590.28;5091409;28;20194;-73
2023/12/23 04:00:38;;;;;;;6.40;1.80;;;;;;;7.74;79.38;97582.78;5090972;28;20662;-72
2023/12/23 04:03:05;;;;;;;3.75;1.60;;;;;;;7.71;79.96;97575.09;5073188;28;20234;-73
2023/12/23 04:05:33;;;;;;;2.40;1.60;;;;;;;7.77;79.95;97576.19;5090276;28;20202;-73
2023/12/23 04:08:00;;;;;;;2.05;1.55;;;;;;;7.80;79.68;97567.72;5074714;28;20278;-73
2023/12/23 04:10:26;;;;;;;2.00;1.73;;;;;;;7.65;80.46;97554.34;5073707;28;20204;-75
2023/12/23 04:12:53;;;;;;;3.13;1.83;;;;;;;7.67;80.02;97549.59;5087288;28;20299;-73
2023/12/23 04:15:19;;;;;;;2.85;1.75;;;;;;;7.60;80.52;97557.59;5071283;28;20204;-72
2023/12/23 04:17:46;;;;;;;2.30;1.40;;;;;;;7.65;79.79;97575.88;5072466;28;20295;-72
2023/12/23 04:20:13;;;;;;;3.47;2.00;;;;;;;7.68;79.12;97553.94;5055210;28;20198;-72
2023/12/23 04:22:44;;;;;;;2.83;1.35;;;;;;;7.68;78.91;97560.16;5072414;28;20255;-73
2023/12/23 04:25:11;;;;;;;2.42;1.67;;;;;;;7.81;78.61;97561.28;5072636;28;20257;-73
2023/12/23 04:27:37;;;;;;;3.25;1.60;;;;;;;7.80;78.29;97546.97;5072762;28;20621;-72
2023/12/23 04:30:05;;;;;;;1.98;1.30;;;;;;;7.84;77.44;97547.41;5104080;28;20200;-72
2023/12/23 04:32:32;;;;;;;1.45;1.33;;;;;;;7.77;77.53;97558.16;5087734;28;20247;-72
2023/12/23 04:34:59;;;;;;;3.67;2.13;;;;;;;7.83;77.56;97568.13;5072085;28;20195;-74
2023/12/23 04:37:26;;;;;;;3.75;1.60;;;;;;;7.85;77.15;97559.84;5089624;28;20232;-73
2023/12/23 04:39:54;;;;;;;3.20;1.20;;;;;;;7.88;77.00;97564.84;5089094;28;20235;-73
2023/12/23 04:42:21;;;;;;;2.90;1.48;;;;;;;7.93;76.98;97555.16;5089390;28;20283;-73
2023/12/23 04:44:48;;;;;;;3.85;1.35;;;;;;;7.85;76.40;97559.84;5072526;28;20206;-73
2023/12/23 04:47:14;;;;;;;3.88;1.65;;;;;;;7.93;76.02;97551.63;5090409;28;20287;-73
2023/12/23 04:49:41;;;;;;;3.95;1.58;;;;;;;7.96;75.26;97553.94;5072021;28;20203;-72
2023/12/23 04:52:07;;;;;;;2.75;1.40;;;;;;;7.93;75.44;97557.00;5092004;28;20215;-72
2023/12/23 04:54:34;;;;;;;2.03;1.20;;;;;;;7.93;75.77;97563.22;5094443;28;20192;-72
2023/12/23 04:57:02;;;;;;;3.65;1.33;;;;;;;7.91;74.96;97554.50;5072721;28;20783;-72
2023/12/23 04:59:28;;;;;;;1.33;1.23;;;;;;;7.86;75.57;97565.03;5070968;28;20226;-72
2023/12/23 05:01:55;;;;;;;1.40;1.02;;;;;;;8.00;74.33;97558.72;5069236;28;20214;-73
2023/12/23 05:04:22;;;;;;;2.15;1.30;;;;;;;7.97;75.11;97547.50;5073088;28;20238;-73
2023/12/23 05:06:48;;;;;;;2.50;1.25;;;;;;;7.96;75.67;97533.19;5071911;28;20204;-73
2023/12/23 05:09:15;;;;;;;2.08;1.45;;;;;;;7.92;75.52;97545.41;5073086;28;20243;-73
2023/12/23 05:11:42;;;;;;;2.70;1.20;;;;;;;8.00;75.36;97539.88;5053963;28;20227;-73
2023/12/23 05:14:10;;;;;;;2.88;1.38;;;;;;;7.98;75.53;97539.22;5055841;28;20204;-73
2023/12/23 05:16:36;;;;;;;3.78;1.58;;;;;;;7.93;75.75;97541.69;5054140;28;20645;-73
2023/12/23 05:19:03;;;;;;;2.45;1.35;;;;;;;7.90;75.65;97555.53;5072172;28;20208;-73
2023/12/23 05:21:29;;;;;;;1.98;1.27;;;;;;;7.96;75.68;97541.28;5038262;28;20199;-72
2023/12/23 05:23:56;;;;;;;2.45;1.10;;;;;;;7.93;76.04;97524.69;5088299;28;20288;-73
2023/12/23 05:26:22;;;;;;;1.70;0.95;;;;;;;7.91;75.98;97527.56;5069584;28;20293;-72
2023/12/23 05:28:49;;;;;;;2.00;1.30;;;;;;;7.94;75.89;97537.13;5054819;28;20211;-74
2023/12/23 05:31:17;;;;;;;1.80;1.00;;;;;;;7.95;76.10;97539.63;5072320;28;20255;-73
2023/12/23 05:33:44;;;;;;;2.25;1.10;;;;;;;8.08;75.70;97528.94;5070794;28;20199;-74
2023/12/23 05:36:11;;;;;;;1.20;0.90;;;;;;;7.92;75.93;97540.00;5054653;28;20206;-74
2023/12/23 05:38:38;;;;;;;1.08;0.90;;;;;;;8.03;75.83;97535.94;5055398;28;20199;-74
2023/12/23 05:41:04;;;;;;;1.52;0.80;;;;;;;8.03;75.70;97533.25;5055397;28;20556;-73
2023/12/23 05:43:31;;;;;;;1.13;0.80;;;;;;;8.05;76.10;97526.63;5052863;28;20207;-74
2023/12/23 05:45:57;;;;;;;1.50;0.75;;;;;;;7.99;76.12;97526.59;5104436;28;20311;-73
2023/12/23 05:48:28;;;;;;;0.80;0.50;;;;;;;8.06;76.09;97535.53;5071256;28;20214;-74
2023/12/23 05:50:54;;;;;;;0.93;0.70;;;;;;;7.99;76.67;97519.34;5072747;28;20207;-74
2023/12/23 05:53:21;;;;;;;0.60;0.50;;;;;;;7.98;76.91;97527.63;5082301;28;20214;-73
2023/12/23 05:55:48;;;;;;;0.80;0.60;;;;;;;7.88;77.29;97517.19;5071645;28;20546;-73
2023/12/23 05:58:15;;;;;;;1.05;0.82;;;;;;;7.92;77.81;97513.06;5089543;28;20214;-73
2023/12/23 06:00:41;;;;;;;1.90;1.02;;;;;;;7.81;78.40;97516.31;5071835;28;20210;-73
2023/12/23 06:03:10;;;;;;;1.85;0.80;;;;;;;7.84;78.37;97521.31;5072880;28;20287;-73
2023/12/23 06:05:38;;;;;;;0.80;0.70;;;;;;;7.85;78.27;97512.19;5088835;28;20210;-73
2023/12/23 06:08:05;;;;;;;0.80;0.73;;;;;;;7.88;78.42;97532.53;5106965;28;20243;-73
2023/12/23 06:10:32;;;;;;;0.93;0.80;;;;;;;7.85;78.40;97520.28;5093397;28;20208;-73
2023/12/23 06:12:59;;;;;;;0.70;0.60;;;;;;;7.86;77.88;97516.56;5074836;28;20224;-73
2023/12/23 06:15:25;;;;;;;1.40;0.60;;;;;;;7.89;77.87;97501.84;5073079;28;20275;-73
2023/12/23 06:17:52;;;;;;;0.93;0.80;;;;;;;7.96;77.60;97497.34;5091984;28;20207;-73
2023/12/23 06:20:19;;;;;;;1.13;1.02;;;;;;;7.90;78.04;97482.81;5058976;28;20210;-73
2023/12/23 06:22:48;;;;;;;0.82;0.70;;;;;;;7.90;77.49;97487.34;5055928;28;20210;-73
2023/12/23 06:25:14;;;;;;;1.25;0.80;;;;;;;7.99;76.51;97487.00;5105262;28;20200;-73
2023/12/23 06:27:41;;;;;;;0.65;0.60;;;;;;;8.03;76.69;97525.16;5076004;28;20673;-72
2023/12/23 06:30:08;;;;;;;0.80;0.60;;;;;;;7.98;77.23;97485.34;5094125;28;20216;-73
2023/12/23 06:32:35;;;;;;;1.15;0.60;;;;;;;8.00;77.30;97525.56;5075131;28;20299;-73
2023/12/23 06:35:02;;;;;;;1.15;0.63;;;;;;;7.95;77.95;97512.69;5073310;28;20679;-73
2023/12/23 06:37:28;;;;;;;1.70;0.52;;;;;;;7.94;77.83;97513.72;5074385;28;20287;-73
2023/12/23 06:39:57;;;;;;;1.02;0.70;;;;;;;7.91;77.65;97503.31;5075674;28;20739;-72
2023/12/23 06:42:24;;;;;;;0.82;0.60;;;;;;;7.95;77.71;97506.47;5074275;28;20196;-73
2023/12/23 06:44:51;;;;;;;0.60;0.55;;;;;;;7.93;77.78;97501.25;5093497;28;20200;-73
2023/12/23 06:47:17;;;;;;;0.70;0.57;;;;;;;7.92;78.14;97518.47;5073328;28;20200;-73
2023/12/23 06:49:44;;;;;;;1.50;0.50;;;;;;;7.92;78.30;97502.28;5092426;28;20567;-73
2023/12/23 06:52:11;;;;;;;0.60;0.50;;;;;;;7.86;78.49;97507.63;5091329;28;20265;-73
2023/12/23 06:54:37;;;;;;;0.50;0.50;;;;;;;7.87;78.50;97523.59;5058066;28;20222;-73
2023/12/23 06:57:05;;;;;;;0.50;0.50;;;;;;;7.87;78.35;97509.31;5051542;28;20210;-73
2023/12/23 06:59:32;;;;;;;1.00;0.50;;;;;;;7.89;78.49;97489.22;5055877;28;20261;-73
2023/12/23 07:01:58;;;;;;;2.00;0.90;;;;;;;7.83;78.66;97483.78;5107681;28;20200;-73
2023/12/23 07:04:25;;;;;;;1.75;0.65;;;;;;;7.87;79.00;97496.66;5073514;28;20206;-73
2023/12/23 07:06:52;;;;;;;0.93;0.70;;;;;;;7.80;79.11;97505.75;5074586;28;20200;-73
2023/12/23 07:09:18;;;;;;;0.50;0.50;;;;;;;7.80;79.50;97503.06;5089597;28;20207;-73
2023/12/23 07:11:46;;;;;;;0.60;0.50;;;;;;;7.72;79.64;97517.50;5074090;28;20216;-73
2023/12/23 07:14:14;;;;;;;1.30;0.80;;;;;;;7.69;79.90;97515.22;5055835;28;20584;-73
2023/12/23 07:16:42;;;;;;;1.02;0.88;;;;;;;7.32;80.18;97511.81;5090016;28;20645;-73
2023/12/23 07:19:09;;;;;;;2.33;0.60;;;;;;;7.65;80.22;97501.31;5120487;28;20617;-72
2023/12/23 07:21:35;;;;;;;1.48;0.57;;;;;;;7.78;79.54;97515.91;5083492;28;20196;-71
2023/12/23 07:24:07;;;;;;;0.80;0.50;;;;;;;7.71;79.32;97516.69;5077471;28;20203;-71
2023/12/23 07:26:35;;;;;;;1.75;0.55;;;;;;;7.80;78.90;97508.44;5107396;28;20199;-71
2023/12/23 07:29:01;;;;;;;0.50;0.50;;;;;;;7.80;78.88;97524.63;5072060;28;20204;-72
2023/12/23 07:31:44;;;;;;;0.70;0.52;;;;;;;7.98;78.40;97539.22;5077309;28;20211;-75
2023/12/23 07:34:11;;;;;;;0.88;0.80;;;;;;;7.86;78.71;97535.41;5088666;28;20219;-73
2023/12/23 07:36:38;;;;;;;0.70;0.60;;;;;;;7.77;78.44;97520.44;5075200;28;20208;-74
2023/12/23 07:39:06;;;;;;;0.50;0.50;;;;;;;7.84;78.57;97528.56;5074098;28;20587;-74
2023/12/23 07:41:32;;;;;;;1.13;0.50;;;;;;;7.80;78.27;97536.19;5092040;28;20206;-74
2023/12/23 07:43:59;;;;;;;1.00;0.80;;;;;;;7.66;78.54;97540.66;5091587;28;20196;-74
2023/12/23 07:46:26;;;;;;;0.68;0.52;;;;;;;7.78;78.48;97538.28;5094204;28;20287;-74
2023/12/23 07:48:57;;;;;;;0.50;0.40;;;;;;;7.83;77.70;97525.03;5092182;28;20196;-74
2023/12/23 07:51:24;;;;;;;0.50;0.40;;;;;;;7.88;77.76;97568.38;5057360;28;20208;-73
2023/12/23 07:53:51;;;;;;;0.80;0.50;;;;;;;7.81;77.19;97547.81;5075570;28;20253;-74
2023/12/23 07:56:17;;;;;;;0.50;0.45;;;;;;;7.92;77.13;97572.34;5074539;28;20290;-73
2023/12/23 07:58:44;;;;;;;0.60;0.50;;;;;;;7.92;76.97;97569.66;5092980;28;20562;-74
2023/12/23 08:01:10;;;;;;;0.60;0.47;;;;;;;7.92;77.20;97561.56;5074632;28;20590;-72
2023/12/23 08:03:37;;;;;;;0.77;0.60;;;;;;;7.96;76.22;97557.44;5085541;28;20214;-73
2023/12/23 08:06:06;;;;;;;0.70;0.50;;;;;;;8.02;75.88;97553.97;5108488;28;20207;-74
2023/12/23 08:08:34;;;;;;;0.60;0.57;;;;;;;8.04;76.15;97546.53;5052115;28;20778;-74
2023/12/23 08:11:00;;;;;;;0.70;0.50;;;;;;;8.00;76.13;97542.56;5070797;28;20294;-74
2023/12/23 08:13:28;;;;;;;0.57;0.50;;;;;;;7.98;76.68;97538.41;5075279;28;20569;-74
2023/12/23 08:15:54;;;;;;;0.65;0.50;;;;;;;7.91;76.65;97557.22;5073220;28;20672;-74
2023/12/23 08:18:21;;;;;;;1.05;0.95;;;;;;;7.96;76.51;97532.38;5107087;28;20200;-74
2023/12/23 08:20:48;;;;;;;0.52;0.50;;;;;;;7.98;76.79;97546.47;5074491;28;20204;-74
2023/12/23 08:23:16;;;;;;;0.52;0.40;;;;;;;8.02;76.38;97556.66;5058243;28;20192;-74
2023/12/23 08:25:44;;;;;;;0.68;0.50;;;;;;;7.93;75.92;97552.47;5091831;28;20206;-74
2023/12/23 08:28:10;;;;;;;0.50;0.50;;;;;;;7.99;76.36;97546.28;5070380;28;20204;-74
2023/12/23 08:30:37;;;;;;;1.13;0.50;;;;;;;8.04;75.69;97560.00;5073072;28;20507;-74
2023/12/23 08:33:03;;;;;;;0.52;0.40;;;;;;;8.02;75.62;97527.03;5070379;28;20223;-73
2023/12/23 08:35:31;;;;;;;0.80;0.68;;;;;;;8.01;74.88;97538.84;5070675;28;20204;-73
2023/12/23 08:37:58;;;;;;;0.50;0.50;;;;;;;8.03;74.79;97539.47;5068396;28;20282;-73
2023/12/23 08:40:26;;;;;;;0.82;0.40;;;;;;;8.18;75.04;97557.38;5067276;28;20654;-74
2023/12/23 08:42:53;;;;;;;1.08;0.50;;;;;;;8.15;74.74;97566.69;5106108;28;20202;-73
2023/12/23 08:45:20;;;;;;;0.57;0.45;;;;;;;8.17;74.17;97559.22;5072968;28;20214;-73
2023/12/23 08:47:46;;;;;;;0.50;0.40;;;;;;;8.12;73.64;97550.94;5086029;28;20207;-73
2023/12/23 08:50:13;;;;;;;1.30;0.60;;;;;;;8.17;74.01;97548.44;5076669;28;20545;-74
2023/12/23 08:52:39;;;;;;;0.55;0.47;;;;;;;8.15;74.39;97563.97;5111759;28;20216;-73
2023/12/23 08:55:07;;;;;;;0.82;0.50;;;;;;;8.15;73.52;97565.84;5113185;27;20199;-75
2023/12/23 08:57:39;;;;;;;1.48;0.52;;;;;;;8.23;72.99;97528.78;5063169;28;20271;-73
2023/12/23 09:00:08;;;;;;;0.50;0.40;;;;;;;8.22;73.74;97550.53;5059544;28;20204;-74
2023/12/23 09:02:35;;;;;;;0.50;0.47;;;;;;;8.30;72.96;97543.13;5076437;28;20204;-75
2023/12/23 09:05:02;;;;;;;0.50;0.50;;;;;;;8.19;73.48;97532.91;5053772;28;20688;-74
2023/12/23 09:07:30;;;;;;;0.63;0.45;;;;;;;8.25;72.85;97507.84;5072075;28;20227;-74
2023/12/23 09:09:56;;;;;;;0.70;0.50;;;;;;;8.32;72.73;97567.19;5072834;28;20665;-73
2023/12/23 09:12:23;;;;;;;0.85;0.45;;;;;;;8.27;72.98;97540.84;5087156;28;20226;-73
2023/12/23 09:14:52;;;;;;;1.08;0.60;;;;;;;8.26;73.29;97535.63;5072391;28;20218;-73
2023/12/23 09:17:18;;;;;;;0.93;0.40;;;;;;;8.23;73.30;97536.03;5103838;28;20210;-73
2023/12/23 09:19:45;;;;;;;0.50;0.50;;;;;;;8.20;73.56;97558.00;5070267;28;20211;-73
2023/12/23 09:22:11;;;;;;;1.45;0.55;;;;;;;8.19;73.39;97556.34;5054563;28;20196;-73
2023/12/23 09:24:41;;;;;;;0.57;0.50;;;;;;;8.15;73.70;97539.72;5071488;28;20231;-74
2023/12/23 09:27:08;;;;;;;0.82;0.50;;;;;;;8.20;73.36;97552.59;5072629;28;20303;-73
2023/12/23 09:29:34;;;;;;;0.50;0.40;;;;;;;8.13;74.02;97566.03;5073334;28;20192;-74
2023/12/23 09:32:02;;;;;;;0.50;0.40;;;;;;;8.15;73.35;97565.84;5090498;28;20198;-74
2023/12/23 09:34:29;;;;;;;0.63;0.50;;;;;;;8.17;73.25;97579.97;5070037;28;20283;-74
2023/12/23 09:36:57;;;;;;;0.50;0.40;;;;;;;8.21;73.25;97581.22;5068388;28;20208;-73
2023/12/23 09:39:25;;;;;;;0.70;0.50;;;;;;;8.20;72.68;97574.16;5071221;28;20214;-74
2023/12/23 09:41:52;;;;;;;0.95;0.47;;;;;;;8.20;72.76;97568.78;5070627;28;20257;-73
2023/12/23 09:44:18;;;;;;;1.08;0.52;;;;;;;8.25;72.69;97569.84;5072429;28;20771;-74
2023/12/23 09:46:45;;;;;;;0.52;0.50;;;;;;;8.25;73.32;97586.03;5072286;28;20199;-74
2023/12/23 09:49:13;;;;;;;0.55;0.50;;;;;;;8.26;72.63;97594.94;5077971;28;20234;-74
2023/12/23 09:51:40;;;;;;;0.60;0.50;;;;;;;8.21;72.63;97603.63;5080644;28;20200;-75
2023/12/23 09:54:07;;;;;;;0.50;0.40;;;;;;;8.21;72.38;97573.13;5062888;28;20220;-76
2023/12/23 09:56:34;;;;;;;0.50;0.50;;;;;;;8.34;72.42;97594.81;5082655;28;20192;-75
2023/12/23 09:59:01;;;;;;;0.50;0.40;;;;;;;8.30;72.75;97602.44;5101082;28;20256;-76
2023/12/23 10:01:27;;;;;;;0.55;0.50;;;;;;;8.29;72.50;97594.56;5081182;28;20191;-74
2023/12/23 10:03:54;;;;;;;0.80;0.50;;;;;;;8.32;72.18;97595.03;5077918;28;20207;-74
2023/12/23 10:06:23;;;;;;;0.60;0.50;;;;;;;8.23;72.92;97600.72;5075226;28;20203;-72
2023/12/23 10:08:50;;;;;;;0.60;0.40;;;;;;;8.27;72.66;97588.53;5090188;28;20282;-74
2023/12/23 10:11:17;;;;;;;0.50;0.40;;;;;;;8.26;72.48;97595.78;5091987;28;20198;-74
2023/12/23 10:13:44;;;;;;;0.95;0.40;;;;;;;8.28;72.12;97600.97;5078598;28;20258;-74
2023/12/23 10:16:10;;;;;;;0.60;0.40;;;;;;;8.23;72.84;97596.19;5108774;27;20676;-74
2023/12/23 10:18:38;;;;;;;0.50;0.40;;;;;;;8.28;72.89;97584.81;5096530;28;20599;-73
2023/12/23 10:21:05;;;;;;;0.50;0.50;;;;;;;8.25;72.51;97577.09;5078963;28;20204;-74
2023/12/23 10:23:33;;;;;;;0.70;0.50;;;;;;;8.24;73.30;97565.50;5058837;28;20192;-74
2023/12/23 10:26:00;;;;;;;0.57;0.50;;;;;;;8.15;72.45;97568.53;5072247;28;20207;-73
2023/12/23 10:28:28;;;;;;;0.70;0.60;;;;;;;8.36;72.40;97571.19;5077182;28;20946;-74
2023/12/23 10:31:00;;;;;;;0.50;0.40;;;;;;;8.32;72.45;97588.75;5076637;28;20291;-74
2023/12/23 10:33:27;;;;;;;0.50;0.50;;;;;;;8.30;73.20;97582.75;5076900;28;20204;-76
2023/12/23 10:35:57;;;;;;;0.50;0.40;;;;;;;8.28;73.21;97582.94;5058022;28;20212;-75
2023/12/23 10:38:26;;;;;;;0.50;0.47;;;;;;;8.25;73.29;97599.50;5075129;28;20196;-75
2023/12/23 10:41:05;;;;;;;0.50;0.40;;;;;;;8.22;73.60;97594.50;5077556;28;20195;-73
2023/12/23 10:43:33;;;;;;;1.02;0.40;;;;;;;8.26;72.89;97590.38;5076619;28;20533;-74
2023/12/23 10:46:00;;;;;;;0.50;0.40;;;;;;;8.30;72.83;97594.34;5076596;28;20564;-74
2023/12/23 10:48:29;;;;;;;0.60;0.40;;;;;;;8.37;72.24;97579.09;5075403;28;20661;-73
2023/12/23 10:50:56;;;;;;;0.77;0.40;;;;;;;8.45;72.27;97588.84;5076526;28;20322;-74
2023/12/23 10:53:23;;;;;;;0.40;0.40;;;;;;;8.41;72.85;97577.66;5091003;28;20239;-74
2023/12/23 10:55:51;;;;;;;0.57;0.57;;;;;;;8.30;73.02;97553.09;5076293;28;20676;-73
2023/12/23 10:58:19;;;;;;;0.60;0.40;;;;;;;8.45;72.59;97620.41;5106086;27;20192;-73
2023/12/23 11:00:46;;;;;;;0.40;0.40;;;;;;;8.40;72.33;97581.38;5092149;28;20204;-74
2023/12/23 11:03:13;;;;;;;0.50;0.40;;;;;;;8.35;72.95;97588.41;5078153;28;20198;-74
2023/12/23 11:05:41;;;;;;;1.02;0.50;;;;;;;8.38;73.59;97561.03;5078505;28;20206;-74
2023/12/23 11:08:10;;;;;;;0.60;0.50;;;;;;;8.35;72.61;97578.44;5105394;27;20211;-74
2023/12/23 11:10:38;;;;;;;0.43;0.40;;;;;;;8.39;71.75;97617.47;5073000;28;20665;-73
2023/12/23 11:13:06;;;;;;;0.50;0.43;;;;;;;8.37;72.71;97580.94;5073639;28;20677;-73
2023/12/23 11:15:38;;;;;;;0.50;0.40;;;;;;;8.37;72.31;97583.66;5074554;28;20199;-74
2023/12/23 11:18:05;;;;;;;0.70;0.40;;;;;;;8.36;72.64;97577.41;5105332;28;20199;-74
2023/12/23 11:20:47;;;;;;;0.50;0.40;;;;;;;8.44;72.62;97610.66;5074710;28;20757;-74
2023/12/23 11:23:33;;;;;;;0.60;0.40;;;;;;;8.42;72.40;97600.06;5105683;28;20220;-74
2023/12/23 11:26:00;;;;;;;1.40;0.50;;;;;;;8.42;72.08;97570.41;5056901;28;20204;-74
2023/12/23 11:28:29;;;;;;;0.50;0.40;;;;;;;8.41;72.27;97593.00;5076955;28;20370;-74
2023/12/23 11:30:58;;;;;;;0.50;0.40;;;;;;;8.40;72.69;97577.84;5074563;28;20223;-74
2023/12/23 11:33:28;;;;;;;0.50;0.40;;;;;;;8.45;72.65;97591.53;5094691;28;20222;-74
2023/12/23 11:35:57;;;;;;;0.50;0.40;;;;;;;8.36;72.79;97590.06;5092991;28;20721;-73
2023/12/23 11:38:27;;;;;;;0.50;0.40;;;;;;;8.38;72.94;97601.50;5074749;28;20203;-73
2023/12/23 11:40:54;;;;;;;0.50;0.40;;;;;;;8.47;72.34;97602.13;5104923;28;20214;-73